Petersburg, KY (41080)

3:29 AM EST on February 08, 2016 (GMT -0500)
Idlebrook | | Change Station
CLOSE
Current Station
Personal Weather Station
Location: Burlington, KY
Elevation: 798 ft
Nearby Weather Stations

Elev 798 ft 39.06 °N, 84.77 °W | Updated 16 seconds ago

Rain
Rain
41.0 °F
Feels Like 41 °F
N
2.0
Wind Variable Wind from WSW
Gusts 3.0 mph

Today
High -- | Low -- °F
--% Chance of Precip.
Yesterday
High -- | Low -- °F
Precip. -- in
Pressure 29.71 in
Visibility 10.0 miles
Clouds Overcast 3400 ft
Windchill 41 °F
Dew Point 35 °F
Humidity 79%
Rainfall 0.00 in
Snow Depth Not available.
7:39 AM 6:08 PM
Waning Crescent, 0% visible
METAR KCVG 080752Z 31010KT 10SM -RA OVC034 05/01 A2971 RMK AO2 RAB04E13B29 SLP059 P0001 T00500011
Pressure 29.71 in
Visibility 10.0 miles
Clouds Overcast 3400 ft
Windchill 41 °F
Dew Point 35 °F
Humidity 79%
Rainfall 0.00 in
Snow Depth Not available.
7:39 AM 6:08 PM
Waning Crescent, 0% visible
METAR KCVG 080752Z 31010KT 10SM -RA OVC034 05/01 A2971 RMK AO2 RAB04E13B29 SLP059 P0001 T00500011

10-Day Weather Forecast

Almanac

Astronomy

Feb. 08, 2016 Rise Set
Actual Time
Civil Twilight
Nautical Twilight
Astronomical Twilight
Moon
Length of Visible Light
Length of Day
Tomorrow will be .
, % of the Moon is Illuminated

Today's Extremes

State Highs State Lows

Community

WunderPhotos

Upload Photos

1,891,412 photos uploaded!

WunderBlog® & News

Nearby

Air Quality

  Air Quality AQ Index Pollutant
Not available.

Snow Depth

Station Depth Elevation

Earthquake Activity

City Distance Mag. Time & Date
Minimum magnitude displayed is 2.5.

Coastal Water Temperatures

Place Temperature

Stations

Nearby Weather Stations

Station Location Temp. Windchill Dew Point Humidity Wind Precip. Elev Updated Type
                   

Watches & Warnings

There are currently no watches in effect.